createdAt,value
2019-01-25T00:02:46.931Z,99938.34
2019-01-25T00:07:51.752Z,99931.63
2019-01-25T00:12:56.531Z,99939.53
2019-01-25T00:18:01.360Z,99945.70
2019-01-25T00:23:06.153Z,99952.92
2019-01-25T00:28:10.949Z,99957.47
2019-01-25T00:33:15.654Z,99946.89
2019-01-25T00:38:20.487Z,99956.93
2019-01-25T00:43:25.202Z,99956.35
2019-01-25T00:48:30.031Z,99960.86
2019-01-25T00:53:34.839Z,99970.52
2019-01-25T00:58:39.540Z,99963.16
2019-01-25T01:03:44.440Z,99967.91
2019-01-25T01:08:49.216Z,99968.55
2019-01-25T01:13:53.922Z,99969.73
2019-01-25T01:18:58.693Z,99971.44
2019-01-25T01:24:03.488Z,99982.08
2019-01-25T01:29:08.262Z,99980.78
2019-01-25T01:34:13.031Z,99979.22
2019-01-25T01:39:17.724Z,99981.80
2019-01-25T01:44:22.456Z,99981.42
2019-01-25T01:49:27.161Z,99986.14
2019-01-25T01:54:31.851Z,99984.69
2019-01-25T01:59:36.572Z,99995.54
2019-01-25T02:04:41.383Z,100000.80
2019-01-25T02:09:46.097Z,100000.95
2019-01-25T02:14:50.809Z,100004.39
2019-01-25T02:19:55.549Z,100005.89
2019-01-25T02:25:00.261Z,100002.20
2019-01-25T02:30:08.303Z,100007.72
2019-01-25T02:35:13.099Z,100005.27
2019-01-25T02:40:19.868Z,100006.75
2019-01-25T02:45:24.654Z,100001.45
2019-01-25T02:50:29.374Z,100003.33
2019-01-25T02:55:34.153Z,100002.52
2019-01-25T03:00:39.003Z,100007.98
2019-01-25T03:05:43.753Z,100003.55
2019-01-25T03:10:48.680Z,99984.69
2019-01-25T03:15:53.368Z,99988.18
2019-01-25T03:20:58.150Z,99998.22
2019-01-25T03:26:02.940Z,99997.58
2019-01-25T03:31:07.682Z,100001.55
2019-01-25T03:36:12.426Z,100006.33
2019-01-25T03:41:17.286Z,100012.12
2019-01-25T03:46:22.091Z,100010.89
2019-01-25T03:51:26.794Z,100008.57
2019-01-25T03:56:31.483Z,99997.64
2019-01-25T04:01:36.316Z,100002.67
2019-01-25T04:06:40.962Z,99995.64
2019-01-25T04:11:45.731Z,99999.19
2019-01-25T04:16:50.503Z,100004.97
2019-01-25T04:21:55.215Z,100011.58
2019-01-25T04:27:00.034Z,100003.09
2019-01-25T04:32:04.946Z,100005.88
2019-01-25T04:37:09.806Z,100005.46
2019-01-25T04:42:14.506Z,100011.42
2019-01-25T04:47:26.671Z,100016.63
2019-01-25T04:52:31.466Z,100015.66
2019-01-25T04:57:36.158Z,100009.98
2019-01-25T05:02:40.946Z,100016.56
2019-01-25T05:07:45.724Z,100019.71
2019-01-25T05:12:53.931Z,100021.12
2019-01-25T05:17:58.736Z,100024.72
2019-01-25T05:23:03.792Z,100032.05
2019-01-25T05:28:16.803Z,100020.91
2019-01-25T05:33:21.647Z,100020.36
2019-01-25T05:38:27.392Z,100024.95
2019-01-25T05:43:42.785Z,100027.41
2019-01-25T05:48:47.517Z,100023.55
2019-01-25T05:53:53.116Z,100020.97
2019-01-25T05:58:57.822Z,100034.56
2019-01-25T06:04:02.596Z,100036.33
2019-01-25T06:09:08.542Z,100033.13
2019-01-25T06:14:15.437Z,100037.36
2019-01-25T06:19:20.213Z,100037.27
2019-01-25T06:24:24.945Z,100041.06
2019-01-25T06:29:33.065Z,100037.61
2019-01-25T06:34:37.883Z,100047.84
2019-01-25T06:39:42.643Z,100045.27
2019-01-25T06:44:47.339Z,100051.33
2019-01-25T06:49:52.156Z,100061.75
2019-01-25T06:54:56.944Z,100065.08
2019-01-25T07:00:01.662Z,100067.34
2019-01-25T07:05:07.478Z,100070.08
2019-01-25T07:10:15.829Z,100076.23
2019-01-25T07:15:22.785Z,100092.39
2019-01-25T07:20:27.484Z,100091.73
2019-01-25T07:25:32.407Z,100103.05
2019-01-25T07:30:37.304Z,100106.98
2019-01-25T07:35:41.991Z,100106.83
2019-01-25T07:40:46.874Z,100104.28
2019-01-25T07:45:51.600Z,100112.38
2019-01-25T07:50:56.320Z,100111.56
2019-01-25T07:56:01.163Z,100122.53
2019-01-25T08:01:06.034Z,100125.13
2019-01-25T08:06:10.828Z,100128.37
2019-01-25T08:11:15.770Z,100127.99
2019-01-25T08:16:20.505Z,100124.75
2019-01-25T08:21:25.215Z,100124.81
2019-01-25T08:26:29.999Z,100118.77
2019-01-25T08:31:34.765Z,100126.77
2019-01-25T08:36:39.527Z,100126.35
2019-01-25T08:41:44.234Z,100139.83
2019-01-25T08:46:48.966Z,100135.16
2019-01-25T08:51:53.807Z,100133.92
2019-01-25T08:56:58.594Z,100138.66
2019-01-25T09:02:03.455Z,100136.56
2019-01-25T09:07:08.249Z,100142.03
2019-01-25T09:12:13.024Z,100145.80
2019-01-25T09:17:17.709Z,100145.53
2019-01-25T09:22:22.450Z,100144.45
2019-01-25T09:27:27.141Z,100144.25
2019-01-25T09:32:31.913Z,100142.52
2019-01-25T09:37:36.716Z,100135.94
2019-01-25T09:42:41.420Z,100135.80
2019-01-25T09:47:46.116Z,100134.23
2019-01-25T09:52:50.891Z,100132.13
2019-01-25T09:57:56.325Z,100129.00
2019-01-25T10:03:02.007Z,100134.74
2019-01-25T10:08:06.869Z,100116.84
2019-01-25T10:13:11.583Z,100125.87
2019-01-25T10:18:16.275Z,100126.37
2019-01-25T10:23:20.975Z,100127.84
2019-01-25T10:28:25.676Z,100124.66
2019-01-25T10:33:30.362Z,100103.71
2019-01-25T10:38:35.137Z,100106.30
2019-01-25T10:43:39.820Z,100101.39
2019-01-25T10:48:44.527Z,100096.08
2019-01-25T10:53:49.236Z,100105.31
2019-01-25T10:58:53.961Z,100101.75
2019-01-25T11:03:58.684Z,100094.10
2019-01-25T11:09:04.937Z,100099.03
2019-01-25T11:14:09.792Z,100085.14
2019-01-25T11:19:14.492Z,100074.44
2019-01-25T11:24:20.162Z,100081.48
2019-01-25T11:29:25.022Z,100081.22
2019-01-25T11:34:33.108Z,100086.48
2019-01-25T11:39:36.154Z,100091.27
2019-01-25T11:44:42.109Z,100077.80
2019-01-25T11:49:46.936Z,100085.75
2019-01-25T11:54:51.755Z,100086.74
2019-01-25T11:59:56.630Z,100096.97
2019-01-25T12:05:01.394Z,100094.02
2019-01-25T12:10:08.230Z,100073.74
2019-01-25T12:15:16.104Z,100076.97
2019-01-25T12:20:28.408Z,100074.58
2019-01-25T12:25:33.360Z,100074.84
2019-01-25T12:30:39.494Z,100076.51
2019-01-25T12:35:44.997Z,100069.87
2019-01-25T12:40:49.739Z,100067.67
2019-01-25T12:45:54.491Z,100064.73
2019-01-25T12:51:18.456Z,100066.91
2019-01-25T12:56:23.182Z,100054.19
2019-01-25T13:01:29.648Z,100049.41
2019-01-25T13:06:34.587Z,100048.95
2019-01-25T13:11:39.488Z,100040.66
2019-01-25T13:16:44.364Z,100042.50
2019-01-25T13:21:49.547Z,100039.28
2019-01-25T13:26:54.399Z,100027.92
2019-01-25T13:32:00.950Z,100022.11
2019-01-25T13:37:05.969Z,100022.11
2019-01-25T13:42:10.928Z,100028.76
2019-01-25T13:47:15.739Z,100028.95
2019-01-25T13:52:20.485Z,100028.20
2019-01-25T13:57:25.261Z,100027.58
2019-01-25T14:02:30.134Z,100023.42
2019-01-25T14:07:35.045Z,100022.05
2019-01-25T14:12:39.886Z,100032.80
2019-01-25T14:17:44.710Z,100046.66
2019-01-25T14:22:50.509Z,100026.64
2019-01-25T14:27:55.563Z,100013.20
2019-01-25T14:33:00.490Z,100011.27
2019-01-25T14:38:06.160Z,100005.84
2019-01-25T14:43:11.731Z,100006.68
2019-01-25T14:48:16.540Z,100004.20
2019-01-25T14:53:21.342Z,100003.20
2019-01-25T14:58:26.051Z,99999.42
2019-01-25T15:03:30.835Z,99993.55
2019-01-25T15:08:35.581Z,100001.11
2019-01-25T15:13:40.445Z,99998.70
2019-01-25T15:18:45.219Z,100003.76
2019-01-25T15:23:49.968Z,100006.25
2019-01-25T15:28:54.945Z,100002.09
2019-01-25T15:33:59.825Z,99999.14
2019-01-25T15:39:07.280Z,99995.89
2019-01-25T15:44:12.164Z,99995.66
2019-01-25T15:49:18.941Z,100011.23
2019-01-25T15:54:23.861Z,100011.70
2019-01-25T15:59:29.209Z,100011.81
2019-01-25T16:04:34.974Z,100011.34
2019-01-25T16:09:41.276Z,100012.63
2019-01-25T16:14:46.059Z,100016.53
2019-01-25T16:19:52.225Z,100016.45
2019-01-25T16:24:57.271Z,100020.72
2019-01-25T16:30:02.222Z,100022.92
2019-01-25T16:35:07.702Z,100030.58
2019-01-25T16:40:15.818Z,100026.25
2019-01-25T16:45:23.803Z,100027.91
2019-01-25T16:50:29.195Z,100026.63
2019-01-25T16:55:34.519Z,100024.78
2019-01-25T17:00:47.440Z,100014.46
2019-01-25T17:05:52.896Z,100004.66
2019-01-25T17:10:57.761Z,99995.83
2019-01-25T17:16:02.542Z,100004.86
2019-01-25T17:21:07.391Z,100002.28
2019-01-25T17:26:12.247Z,99997.85
2019-01-25T17:31:17.839Z,99992.56
2019-01-25T17:36:23.455Z,99982.70
2019-01-25T17:41:28.815Z,99988.13
2019-01-25T17:46:34.068Z,99990.70
2019-01-25T17:51:39.129Z,99982.67
2019-01-25T17:56:44.140Z,99986.09
2019-01-25T18:01:49.741Z,99988.20
2019-01-25T18:06:54.979Z,99984.81
2019-01-25T18:12:00.183Z,99985.52
2019-01-25T18:17:05.664Z,99989.02
2019-01-25T18:22:11.226Z,99979.05
2019-01-25T18:27:16.829Z,99969.75
2019-01-25T18:32:22.984Z,99973.82
2019-01-25T18:37:28.724Z,99967.44
2019-01-25T18:42:35.463Z,99963.41
2019-01-25T18:47:41.340Z,99953.64
2019-01-25T18:52:47.168Z,99946.01
2019-01-25T18:57:53.760Z,99948.48
2019-01-25T19:02:59.842Z,99935.05
2019-01-25T19:08:06.567Z,99932.84
2019-01-25T19:13:13.047Z,99914.13
2019-01-25T19:18:18.927Z,99914.13
2019-01-25T19:23:25.247Z,99911.86
2019-01-25T19:28:30.992Z,99907.22
2019-01-25T19:33:36.487Z,99898.57
2019-01-25T19:38:42.115Z,99890.74
2019-01-25T19:43:48.081Z,99866.27
2019-01-25T19:48:54.808Z,99858.44
2019-01-25T19:54:02.029Z,99841.78
2019-01-25T19:59:08.072Z,99848.87
2019-01-25T20:04:14.679Z,99845.37
2019-01-25T20:09:21.476Z,99836.55
2019-01-25T20:14:27.719Z,99841.16
2019-01-25T20:19:34.124Z,99847.77
2019-01-25T20:24:40.204Z,99841.59
2019-01-25T20:29:46.110Z,99836.27
2019-01-25T20:34:51.818Z,99816.66
2019-01-25T20:39:57.600Z,99815.38
2019-01-25T20:45:04.103Z,99816.20
2019-01-25T20:50:13.664Z,99805.70
2019-01-25T20:55:19.541Z,99795.33
2019-01-25T21:00:31.191Z,99787.66
2019-01-25T21:05:37.136Z,99780.67
2019-01-25T21:10:43.201Z,99771.55
2019-01-25T21:15:49.096Z,99768.69
2019-01-25T21:20:54.807Z,99751.64
2019-01-25T21:26:00.720Z,99747.52
2019-01-25T21:31:06.272Z,99747.98
2019-01-25T21:36:12.258Z,99736.09
2019-01-25T21:41:18.092Z,99730.83
2019-01-25T21:46:24.059Z,99729.98
2019-01-25T21:51:30.047Z,99725.13
2019-01-25T21:56:35.548Z,99711.56
2019-01-25T22:01:40.848Z,99709.98
2019-01-25T22:06:45.777Z,99697.27
2019-01-25T22:11:50.644Z,99699.84
2019-01-25T22:16:55.817Z,99701.50
2019-01-25T22:22:00.631Z,99690.98
2019-01-25T22:27:05.448Z,99684.91
2019-01-25T22:32:10.264Z,99656.98
2019-01-25T22:37:15.263Z,99658.09
2019-01-25T22:42:20.122Z,99671.91
2019-01-25T22:47:24.836Z,99658.34
2019-01-25T22:52:29.621Z,99636.33
2019-01-25T22:57:34.441Z,99636.27
2019-01-25T23:02:39.476Z,99631.77
2019-01-25T23:07:44.221Z,99602.97
2019-01-25T23:12:49.433Z,99586.55
2019-01-25T23:17:54.189Z,99572.48
2019-01-25T23:22:59.013Z,99554.86
2019-01-25T23:28:03.728Z,99548.13
2019-01-25T23:33:08.533Z,99533.94
2019-01-25T23:38:13.269Z,99522.77
2019-01-25T23:43:17.975Z,99505.89
2019-01-25T23:48:22.758Z,99510.84
2019-01-25T23:53:27.568Z,99496.20
2019-01-25T23:58:32.354Z,99496.20
